sensor_id;sensor_type;location;lat;lon;timestamp;pressure;altitude;pressure_sealevel;temperature
10598;BMP180;5346;48.766;8.674;2023-04-19T00:01:04;94528.00;;;7.10
10598;BMP180;5346;48.766;8.674;2023-04-19T00:03:38;94492.00;;;7.00
10598;BMP180;5346;48.766;8.674;2023-04-19T00:06:12;94501.00;;;7.00
10598;BMP180;5346;48.766;8.674;2023-04-19T00:08:41;94522.00;;;7.00
10598;BMP180;5346;48.766;8.674;2023-04-19T00:11:15;94524.00;;;7.10
10598;BMP180;5346;48.766;8.674;2023-04-19T00:13:49;94484.00;;;7.10
10598;BMP180;5346;48.766;8.674;2023-04-19T00:16:16;94509.00;;;7.00
10598;BMP180;5346;48.766;8.674;2023-04-19T00:18:50;94488.00;;;7.00
10598;BMP180;5346;48.766;8.674;2023-04-19T00:21:17;94505.00;;;7.00
10598;BMP180;5346;48.766;8.674;2023-04-19T00:23:51;94491.00;;;7.00
10598;BMP180;5346;48.766;8.674;2023-04-19T00:26:26;94481.00;;;7.00
10598;BMP180;5346;48.766;8.674;2023-04-19T00:29:00;94477.00;;;6.90
10598;BMP180;5346;48.766;8.674;2023-04-19T00:31:35;94512.00;;;6.90
10598;BMP180;5346;48.766;8.674;2023-04-19T00:34:09;94492.00;;;6.90
10598;BMP180;5346;48.766;8.674;2023-04-19T00:36:36;94504.00;;;7.00
10598;BMP180;5346;48.766;8.674;2023-04-19T00:39:10;94503.00;;;6.80
10598;BMP180;5346;48.766;8.674;2023-04-19T00:41:37;94505.00;;;6.90
10598;BMP180;5346;48.766;8.674;2023-04-19T00:44:04;94482.00;;;6.90
10598;BMP180;5346;48.766;8.674;2023-04-19T00:46:39;94477.00;;;7.00
10598;BMP180;5346;48.766;8.674;2023-04-19T00:49:13;94468.00;;;6.90
10598;BMP180;5346;48.766;8.674;2023-04-19T00:51:41;94490.00;;;6.90
10598;BMP180;5346;48.766;8.674;2023-04-19T00:54:14;94481.00;;;6.80
10598;BMP180;5346;48.766;8.674;2023-04-19T00:56:43;94472.00;;;6.90
10598;BMP180;5346;48.766;8.674;2023-04-19T00:59:17;94468.00;;;6.90
10598;BMP180;5346;48.766;8.674;2023-04-19T01:01:45;94498.00;;;6.80
10598;BMP180;5346;48.766;8.674;2023-04-19T01:04:19;94465.00;;;6.80
10598;BMP180;5346;48.766;8.674;2023-04-19T01:06:46;94474.00;;;6.80
10598;BMP180;5346;48.766;8.674;2023-04-19T01:09:20;94492.00;;;6.80
10598;BMP180;5346;48.766;8.674;2023-04-19T01:11:47;94491.00;;;6.90
10598;BMP180;5346;48.766;8.674;2023-04-19T01:14:21;94451.00;;;6.80
10598;BMP180;5346;48.766;8.674;2023-04-19T01:16:56;94479.00;;;6.80
10598;BMP180;5346;48.766;8.674;2023-04-19T01:19:30;94472.00;;;6.80
10598;BMP180;5346;48.766;8.674;2023-04-19T01:21:57;94454.00;;;6.80
10598;BMP180;5346;48.766;8.674;2023-04-19T01:24:32;94459.00;;;6.70
10598;BMP180;5346;48.766;8.674;2023-04-19T01:26:59;94472.00;;;6.70
10598;BMP180;5346;48.766;8.674;2023-04-19T01:29:40;94476.00;;;6.70
10598;BMP180;5346;48.766;8.674;2023-04-19T01:32:13;94432.00;;;6.70
10598;BMP180;5346;48.766;8.674;2023-04-19T01:34:48;94428.00;;;6.80
10598;BMP180;5346;48.766;8.674;2023-04-19T01:37:15;94435.00;;;6.80
10598;BMP180;5346;48.766;8.674;2023-04-19T01:39:49;94442.00;;;6.70
10598;BMP180;5346;48.766;8.674;2023-04-19T01:42:23;94464.00;;;6.70
10598;BMP180;5346;48.766;8.674;2023-04-19T01:44:56;94429.00;;;6.60
10598;BMP180;5346;48.766;8.674;2023-04-19T01:47:30;94463.00;;;6.60
10598;BMP180;5346;48.766;8.674;2023-04-19T01:49:57;94443.00;;;6.50
10598;BMP180;5346;48.766;8.674;2023-04-19T01:52:31;94444.00;;;6.60
10598;BMP180;5346;48.766;8.674;2023-04-19T01:55:05;94432.00;;;6.60
10598;BMP180;5346;48.766;8.674;2023-04-19T01:57:39;94436.00;;;6.60
10598;BMP180;5346;48.766;8.674;2023-04-19T02:00:07;94439.00;;;6.60
10598;BMP180;5346;48.766;8.674;2023-04-19T02:02:43;94426.00;;;6.70
10598;BMP180;5346;48.766;8.674;2023-04-19T02:05:11;94420.00;;;6.80
10598;BMP180;5346;48.766;8.674;2023-04-19T02:07:45;94432.00;;;6.60
10598;BMP180;5346;48.766;8.674;2023-04-19T02:10:19;94393.00;;;6.60
10598;BMP180;5346;48.766;8.674;2023-04-19T02:12:53;94414.00;;;6.70
10598;BMP180;5346;48.766;8.674;2023-04-19T02:15:27;94394.00;;;6.60
10598;BMP180;5346;48.766;8.674;2023-04-19T02:18:01;94393.00;;;6.60
10598;BMP180;5346;48.766;8.674;2023-04-19T02:20:35;94423.00;;;6.60
10598;BMP180;5346;48.766;8.674;2023-04-19T02:23:09;94419.00;;;6.70
10598;BMP180;5346;48.766;8.674;2023-04-19T02:25:43;94427.00;;;6.60
10598;BMP180;5346;48.766;8.674;2023-04-19T02:28:23;94433.00;;;6.60
10598;BMP180;5346;48.766;8.674;2023-04-19T02:30:50;94423.00;;;6.50
10598;BMP180;5346;48.766;8.674;2023-04-19T02:33:25;94395.00;;;6.40
10598;BMP180;5346;48.766;8.674;2023-04-19T02:36:02;94376.00;;;6.40
10598;BMP180;5346;48.766;8.674;2023-04-19T02:38:36;94409.00;;;6.50
10598;BMP180;5346;48.766;8.674;2023-04-19T02:41:03;94408.00;;;6.40
10598;BMP180;5346;48.766;8.674;2023-04-19T02:43:38;94388.00;;;6.40
10598;BMP180;5346;48.766;8.674;2023-04-19T02:46:06;94414.00;;;6.40
10598;BMP180;5346;48.766;8.674;2023-04-19T02:48:40;94406.00;;;6.40
10598;BMP180;5346;48.766;8.674;2023-04-19T02:51:20;94416.00;;;6.50
10598;BMP180;5346;48.766;8.674;2023-04-19T02:53:54;94389.00;;;6.50
10598;BMP180;5346;48.766;8.674;2023-04-19T02:56:28;94400.00;;;6.40
10598;BMP180;5346;48.766;8.674;2023-04-19T02:59:04;94418.00;;;6.40
10598;BMP180;5346;48.766;8.674;2023-04-19T03:01:39;94409.00;;;6.40
10598;BMP180;5346;48.766;8.674;2023-04-19T03:04:13;94388.00;;;6.30
10598;BMP180;5346;48.766;8.674;2023-04-19T03:06:40;94412.00;;;6.30
10598;BMP180;5346;48.766;8.674;2023-04-19T03:09:14;94381.00;;;6.40
10598;BMP180;5346;48.766;8.674;2023-04-19T03:11:41;94382.00;;;6.30
10598;BMP180;5346;48.766;8.674;2023-04-19T03:14:15;94403.00;;;6.40
10598;BMP180;5346;48.766;8.674;2023-04-19T03:16:42;94392.00;;;6.30
10598;BMP180;5346;48.766;8.674;2023-04-19T03:19:16;94402.00;;;6.30
10598;BMP180;5346;48.766;8.674;2023-04-19T03:21:50;94400.00;;;6.30
10598;BMP180;5346;48.766;8.674;2023-04-19T03:24:30;94394.00;;;6.20
10598;BMP180;5346;48.766;8.674;2023-04-19T03:26:58;94406.00;;;6.20
10598;BMP180;5346;48.766;8.674;2023-04-19T03:29:32;94367.00;;;6.20
10598;BMP180;5346;48.766;8.674;2023-04-19T03:32:06;94406.00;;;6.30
10598;BMP180;5346;48.766;8.674;2023-04-19T03:34:40;94402.00;;;6.20
10598;BMP180;5346;48.766;8.674;2023-04-19T03:37:07;94361.00;;;6.30
10598;BMP180;5346;48.766;8.674;2023-04-19T03:39:41;94387.00;;;6.20
10598;BMP180;5346;48.766;8.674;2023-04-19T03:42:15;94347.00;;;6.20
10598;BMP180;5346;48.766;8.674;2023-04-19T03:44:42;94364.00;;;6.10
10598;BMP180;5346;48.766;8.674;2023-04-19T03:47:16;94400.00;;;6.10
10598;BMP180;5346;48.766;8.674;2023-04-19T03:49:43;94354.00;;;6.10
10598;BMP180;5346;48.766;8.674;2023-04-19T03:52:17;94353.00;;;6.10
10598;BMP180;5346;48.766;8.674;2023-04-19T03:54:44;94355.00;;;6.20
10598;BMP180;5346;48.766;8.674;2023-04-19T03:57:18;94380.00;;;6.10
10598;BMP180;5346;48.766;8.674;2023-04-19T03:59:46;94384.00;;;6.00
10598;BMP180;5346;48.766;8.674;2023-04-19T04:02:20;94374.00;;;6.10
10598;BMP180;5346;48.766;8.674;2023-04-19T04:04:55;94381.00;;;6.10
10598;BMP180;5346;48.766;8.674;2023-04-19T04:07:29;94375.00;;;6.10
10598;BMP180;5346;48.766;8.674;2023-04-19T04:09:56;94373.00;;;6.10
10598;BMP180;5346;48.766;8.674;2023-04-19T04:12:30;94377.00;;;6.00
10598;BMP180;5346;48.766;8.674;2023-04-19T04:15:06;94385.00;;;6.10
10598;BMP180;5346;48.766;8.674;2023-04-19T04:17:40;94368.00;;;6.00
10598;BMP180;5346;48.766;8.674;2023-04-19T04:20:14;94394.00;;;6.00
10598;BMP180;5346;48.766;8.674;2023-04-19T04:22:43;94383.00;;;6.10
10598;BMP180;5346;48.766;8.674;2023-04-19T04:25:19;94385.00;;;6.00
10598;BMP180;5346;48.766;8.674;2023-04-19T04:27:55;94374.00;;;6.10
10598;BMP180;5346;48.766;8.674;2023-04-19T04:30:29;94370.00;;;6.10
10598;BMP180;5346;48.766;8.674;2023-04-19T04:32:56;94378.00;;;6.00
10598;BMP180;5346;48.766;8.674;2023-04-19T04:35:27;94401.00;;;6.00
10598;BMP180;5346;48.766;8.674;2023-04-19T04:38:02;94387.00;;;6.10
10598;BMP180;5346;48.766;8.674;2023-04-19T04:40:54;94396.00;;;6.00
10598;BMP180;5346;48.766;8.674;2023-04-19T04:43:28;94400.00;;;6.10
10598;BMP180;5346;48.766;8.674;2023-04-19T04:46:02;94368.00;;;6.10
10598;BMP180;5346;48.766;8.674;2023-04-19T04:48:30;94394.00;;;6.10
10598;BMP180;5346;48.766;8.674;2023-04-19T04:51:04;94365.00;;;6.00
10598;BMP180;5346;48.766;8.674;2023-04-19T04:53:31;94384.00;;;6.00
10598;BMP180;5346;48.766;8.674;2023-04-19T04:56:05;94385.00;;;6.10
10598;BMP180;5346;48.766;8.674;2023-04-19T04:58:39;94370.00;;;6.00
10598;BMP180;5346;48.766;8.674;2023-04-19T05:01:09;94360.00;;;6.10
10598;BMP180;5346;48.766;8.674;2023-04-19T05:03:44;94393.00;;;6.20
10598;BMP180;5346;48.766;8.674;2023-04-19T05:06:13;94359.00;;;6.20
10598;BMP180;5346;48.766;8.674;2023-04-19T05:08:47;94394.00;;;6.10
10598;BMP180;5346;48.766;8.674;2023-04-19T05:11:21;94374.00;;;6.10
10598;BMP180;5346;48.766;8.674;2023-04-19T05:13:55;94375.00;;;6.10
10598;BMP180;5346;48.766;8.674;2023-04-19T05:16:22;94359.00;;;6.10
10598;BMP180;5346;48.766;8.674;2023-04-19T05:18:56;94389.00;;;6.10
10598;BMP180;5346;48.766;8.674;2023-04-19T05:21:32;94356.00;;;6.30
10598;BMP180;5346;48.766;8.674;2023-04-19T05:24:06;94362.00;;;6.20
10598;BMP180;5346;48.766;8.674;2023-04-19T05:26:42;94363.00;;;6.30
10598;BMP180;5346;48.766;8.674;2023-04-19T05:29:16;94379.00;;;6.30
10598;BMP180;5346;48.766;8.674;2023-04-19T05:31:57;94384.00;;;6.40
10598;BMP180;5346;48.766;8.674;2023-04-19T05:34:24;94396.00;;;6.40
10598;BMP180;5346;48.766;8.674;2023-04-19T05:36:58;94399.00;;;6.50
10598;BMP180;5346;48.766;8.674;2023-04-19T05:39:32;94356.00;;;6.30
10598;BMP180;5346;48.766;8.674;2023-04-19T05:42:09;94394.00;;;6.40
10598;BMP180;5346;48.766;8.674;2023-04-19T05:44:36;94375.00;;;6.30
10598;BMP180;5346;48.766;8.674;2023-04-19T05:47:12;94355.00;;;6.30
10598;BMP180;5346;48.766;8.674;2023-04-19T05:49:39;94377.00;;;6.40
10598;BMP180;5346;48.766;8.674;2023-04-19T05:52:13;94378.00;;;6.50
10598;BMP180;5346;48.766;8.674;2023-04-19T05:54:40;94355.00;;;6.40
10598;BMP180;5346;48.766;8.674;2023-04-19T05:57:07;94371.00;;;6.40
10598;BMP180;5346;48.766;8.674;2023-04-19T05:59:41;94409.00;;;6.40
10598;BMP180;5346;48.766;8.674;2023-04-19T06:02:08;94382.00;;;6.40
10598;BMP180;5346;48.766;8.674;2023-04-19T06:04:42;94407.00;;;6.30
10598;BMP180;5346;48.766;8.674;2023-04-19T06:07:09;94412.00;;;6.30
10598;BMP180;5346;48.766;8.674;2023-04-19T06:09:59;94412.00;;;6.20
10598;BMP180;5346;48.766;8.674;2023-04-19T06:12:33;94404.00;;;6.30
10598;BMP180;5346;48.766;8.674;2023-04-19T06:15:08;94403.00;;;6.40
10598;BMP180;5346;48.766;8.674;2023-04-19T06:17:42;94392.00;;;6.50
10598;BMP180;5346;48.766;8.674;2023-04-19T06:20:16;94393.00;;;6.30
10598;BMP180;5346;48.766;8.674;2023-04-19T06:22:50;94394.00;;;6.50
10598;BMP180;5346;48.766;8.674;2023-04-19T06:25:24;94407.00;;;6.40
10598;BMP180;5346;48.766;8.674;2023-04-19T06:28:04;94419.00;;;6.40
10598;BMP180;5346;48.766;8.674;2023-04-19T06:30:38;94406.00;;;6.40
10598;BMP180;5346;48.766;8.674;2023-04-19T06:33:12;94406.00;;;6.50
10598;BMP180;5346;48.766;8.674;2023-04-19T06:35:46;94419.00;;;6.50
10598;BMP180;5346;48.766;8.674;2023-04-19T06:38:20;94391.00;;;6.60
10598;BMP180;5346;48.766;8.674;2023-04-19T06:40:47;94413.00;;;6.70
10598;BMP180;5346;48.766;8.674;2023-04-19T06:43:21;94393.00;;;6.70
10598;BMP180;5346;48.766;8.674;2023-04-19T06:46:02;94380.00;;;6.90
10598;BMP180;5346;48.766;8.674;2023-04-19T06:48:37;94387.00;;;7.10
10598;BMP180;5346;48.766;8.674;2023-04-19T06:51:07;94398.00;;;6.90
10598;BMP180;5346;48.766;8.674;2023-04-19T06:53:40;94385.00;;;7.20
10598;BMP180;5346;48.766;8.674;2023-04-19T06:56:08;94411.00;;;7.10
10598;BMP180;5346;48.766;8.674;2023-04-19T06:58:43;94405.00;;;7.10
10598;BMP180;5346;48.766;8.674;2023-04-19T07:01:17;94364.00;;;7.00
10598;BMP180;5346;48.766;8.674;2023-04-19T07:03:51;94409.00;;;7.00
10598;BMP180;5346;48.766;8.674;2023-04-19T07:06:20;94413.00;;;7.00
10598;BMP180;5346;48.766;8.674;2023-04-19T07:08:47;94400.00;;;7.10
10598;BMP180;5346;48.766;8.674;2023-04-19T07:11:21;94401.00;;;7.20
10598;BMP180;5346;48.766;8.674;2023-04-19T07:13:49;94373.00;;;7.20
10598;BMP180;5346;48.766;8.674;2023-04-19T07:16:35;94349.00;;;7.40
10598;BMP180;5346;48.766;8.674;2023-04-19T07:19:02;94402.00;;;7.30
10598;BMP180;5346;48.766;8.674;2023-04-19T07:21:36;94405.00;;;7.40
10598;BMP180;5346;48.766;8.674;2023-04-19T07:24:11;94395.00;;;7.60
10598;BMP180;5346;48.766;8.674;2023-04-19T07:26:38;94410.00;;;8.00
10598;BMP180;5346;48.766;8.674;2023-04-19T07:29:18;94367.00;;;8.30
10598;BMP180;5346;48.766;8.674;2023-04-19T07:31:52;94400.00;;;8.50
10598;BMP180;5346;48.766;8.674;2023-04-19T07:34:27;94365.00;;;8.60
10598;BMP180;5346;48.766;8.674;2023-04-19T07:36:56;94373.00;;;8.90
10598;BMP180;5346;48.766;8.674;2023-04-19T07:39:29;94374.00;;;9.30
10598;BMP180;5346;48.766;8.674;2023-04-19T07:41:56;94355.00;;;9.20
10598;BMP180;5346;48.766;8.674;2023-04-19T07:44:30;94362.00;;;9.30
10598;BMP180;5346;48.766;8.674;2023-04-19T07:46:57;94369.00;;;9.40
10598;BMP180;5346;48.766;8.674;2023-04-19T07:49:31;94380.00;;;9.60
10598;BMP180;5346;48.766;8.674;2023-04-19T07:52:06;94353.00;;;9.30
10598;BMP180;5346;48.766;8.674;2023-04-19T07:54:40;94380.00;;;9.50
10598;BMP180;5346;48.766;8.674;2023-04-19T07:57:07;94373.00;;;9.80
10598;BMP180;5346;48.766;8.674;2023-04-19T07:59:42;94359.00;;;10.30
10598;BMP180;5346;48.766;8.674;2023-04-19T08:02:16;94350.00;;;10.20
10598;BMP180;5346;48.766;8.674;2023-04-19T08:04:51;94349.00;;;10.60
10598;BMP180;5346;48.766;8.674;2023-04-19T08:07:18;94348.00;;;11.00
10598;BMP180;5346;48.766;8.674;2023-04-19T08:09:52;94356.00;;;11.00
10598;BMP180;5346;48.766;8.674;2023-04-19T08:12:26;94358.00;;;10.80
10598;BMP180;5346;48.766;8.674;2023-04-19T08:15:07;94380.00;;;10.40
10598;BMP180;5346;48.766;8.674;2023-04-19T08:18:01;94317.00;;;10.10
10598;BMP180;5346;48.766;8.674;2023-04-19T08:20:37;94383.00;;;9.80
10598;BMP180;5346;48.766;8.674;2023-04-19T08:23:11;94371.00;;;9.80
10598;BMP180;5346;48.766;8.674;2023-04-19T08:25:55;94379.00;;;10.10
10598;BMP180;5346;48.766;8.674;2023-04-19T08:28:22;94369.00;;;10.10
10598;BMP180;5346;48.766;8.674;2023-04-19T08:31:06;94357.00;;;10.40
10598;BMP180;5346;48.766;8.674;2023-04-19T08:33:40;94336.00;;;10.00
10598;BMP180;5346;48.766;8.674;2023-04-19T08:36:08;94372.00;;;10.10
10598;BMP180;5346;48.766;8.674;2023-04-19T08:38:48;94340.00;;;9.90
10598;BMP180;5346;48.766;8.674;2023-04-19T08:41:33;94337.00;;;10.40
10598;BMP180;5346;48.766;8.674;2023-04-19T08:44:02;94338.00;;;10.80
10598;BMP180;5346;48.766;8.674;2023-04-19T08:46:36;94364.00;;;10.80
10598;BMP180;5346;48.766;8.674;2023-04-19T08:49:08;94340.00;;;11.20
10598;BMP180;5346;48.766;8.674;2023-04-19T08:51:43;94330.00;;;12.60
10598;BMP180;5346;48.766;8.674;2023-04-19T08:54:11;94356.00;;;13.10
10598;BMP180;5346;48.766;8.674;2023-04-19T08:56:44;94315.00;;;13.60
10598;BMP180;5346;48.766;8.674;2023-04-19T08:59:11;94349.00;;;13.00
10598;BMP180;5346;48.766;8.674;2023-04-19T09:01:46;94322.00;;;12.70
10598;BMP180;5346;48.766;8.674;2023-04-19T09:04:13;94348.00;;;12.30
10598;BMP180;5346;48.766;8.674;2023-04-19T09:07:01;94337.00;;;12.70
10598;BMP180;5346;48.766;8.674;2023-04-19T09:09:29;94326.00;;;13.00
10598;BMP180;5346;48.766;8.674;2023-04-19T09:12:21;94336.00;;;12.80
10598;BMP180;5346;48.766;8.674;2023-04-19T09:14:48;94336.00;;;13.00
10598;BMP180;5346;48.766;8.674;2023-04-19T09:17:30;94312.00;;;12.80
10598;BMP180;5346;48.766;8.674;2023-04-19T09:19:58;94335.00;;;12.80
10598;BMP180;5346;48.766;8.674;2023-04-19T09:22:32;94334.00;;;13.10
10598;BMP180;5346;48.766;8.674;2023-04-19T09:25:00;94307.00;;;12.90
10598;BMP180;5346;48.766;8.674;2023-04-19T09:27:43;94340.00;;;13.10
10598;BMP180;5346;48.766;8.674;2023-04-19T09:30:12;94319.00;;;13.30
10598;BMP180;5346;48.766;8.674;2023-04-19T09:32:58;94308.00;;;14.00
10598;BMP180;5346;48.766;8.674;2023-04-19T09:35:46;94281.00;;;16.00
10598;BMP180;5346;48.766;8.674;2023-04-19T09:38:22;94274.00;;;16.90
10598;BMP180;5346;48.766;8.674;2023-04-19T09:41:08;94292.00;;;17.20
10598;BMP180;5346;48.766;8.674;2023-04-19T09:43:36;94277.00;;;17.80
10598;BMP180;5346;48.766;8.674;2023-04-19T09:46:35;94304.00;;;16.40
10598;BMP180;5346;48.766;8.674;2023-04-19T09:49:19;94257.00;;;16.80
10598;BMP180;5346;48.766;8.674;2023-04-19T09:52:15;94262.00;;;18.60
10598;BMP180;5346;48.766;8.674;2023-04-19T09:54:43;94296.00;;;18.30
10598;BMP180;5346;48.766;8.674;2023-04-19T09:57:17;94299.00;;;17.30
10598;BMP180;5346;48.766;8.674;2023-04-19T09:59:44;94246.00;;;15.80
10598;BMP180;5346;48.766;8.674;2023-04-19T10:02:19;94320.00;;;14.60
10598;BMP180;5346;48.766;8.674;2023-04-19T10:04:48;94328.00;;;14.20
10598;BMP180;5346;48.766;8.674;2023-04-19T10:07:42;94298.00;;;13.90
10598;BMP180;5346;48.766;8.674;2023-04-19T10:10:17;94300.00;;;13.60
10598;BMP180;5346;48.766;8.674;2023-04-19T10:13:11;94309.00;;;13.40
10598;BMP180;5346;48.766;8.674;2023-04-19T10:15:42;94319.00;;;13.50
10598;BMP180;5346;48.766;8.674;2023-04-19T10:18:34;94281.00;;;13.50
10598;BMP180;5346;48.766;8.674;2023-04-19T10:21:10;94291.00;;;14.50
10598;BMP180;5346;48.766;8.674;2023-04-19T10:23:43;94308.00;;;14.20
10598;BMP180;5346;48.766;8.674;2023-04-19T10:26:10;94296.00;;;13.70
10598;BMP180;5346;48.766;8.674;2023-04-19T10:28:44;94295.00;;;13.40
10598;BMP180;5346;48.766;8.674;2023-04-19T10:31:19;94306.00;;;13.10
10598;BMP180;5346;48.766;8.674;2023-04-19T10:33:57;94312.00;;;12.90
10598;BMP180;5346;48.766;8.674;2023-04-19T10:36:31;94294.00;;;13.30
10598;BMP180;5346;48.766;8.674;2023-04-19T10:39:42;94315.00;;;13.50
10598;BMP180;5346;48.766;8.674;2023-04-19T10:42:10;94303.00;;;13.00
10598;BMP180;5346;48.766;8.674;2023-04-19T10:45:31;94308.00;;;13.20
10598;BMP180;5346;48.766;8.674;2023-04-19T10:47:58;94268.00;;;12.90
10598;BMP180;5346;48.766;8.674;2023-04-19T10:51:01;94301.00;;;12.10
10598;BMP180;5346;48.766;8.674;2023-04-19T10:53:50;94269.00;;;13.00
10598;BMP180;5346;48.766;8.674;2023-04-19T10:56:55;94274.00;;;14.80
10598;BMP180;5346;48.766;8.674;2023-04-19T10:59:16;94253.00;;;15.00
10598;BMP180;5346;48.766;8.674;2023-04-19T11:01:58;94287.00;;;14.60
10598;BMP180;5346;48.766;8.674;2023-04-19T11:07:23;94261.00;;;13.10
10598;BMP180;5346;48.766;8.674;2023-04-19T11:09:57;94289.00;;;12.70
10598;BMP180;5346;48.766;8.674;2023-04-19T11:12:32;94290.00;;;11.90
10598;BMP180;5346;48.766;8.674;2023-04-19T11:14:59;94275.00;;;11.50
10598;BMP180;5346;48.766;8.674;2023-04-19T11:17:33;94258.00;;;11.40
10598;BMP180;5346;48.766;8.674;2023-04-19T11:20:06;94262.00;;;11.40
10598;BMP180;5346;48.766;8.674;2023-04-19T11:22:43;94279.00;;;10.80
10598;BMP180;5346;48.766;8.674;2023-04-19T11:25:11;94295.00;;;10.70
10598;BMP180;5346;48.766;8.674;2023-04-19T11:27:52;94270.00;;;10.60
10598;BMP180;5346;48.766;8.674;2023-04-19T11:30:33;94268.00;;;10.40
10598;BMP180;5346;48.766;8.674;2023-04-19T11:33:07;94289.00;;;10.40
10598;BMP180;5346;48.766;8.674;2023-04-19T11:35:42;94270.00;;;10.30
10598;BMP180;5346;48.766;8.674;2023-04-19T11:38:16;94281.00;;;10.00
10598;BMP180;5346;48.766;8.674;2023-04-19T11:41:02;94255.00;;;10.10
10598;BMP180;5346;48.766;8.674;2023-04-19T11:43:36;94251.00;;;9.80
10598;BMP180;5346;48.766;8.674;2023-04-19T11:46:12;94230.00;;;9.60
10598;BMP180;5346;48.766;8.674;2023-04-19T11:48:51;94236.00;;;9.70
10598;BMP180;5346;48.766;8.674;2023-04-19T11:51:19;94235.00;;;9.80
10598;BMP180;5346;48.766;8.674;2023-04-19T11:53:53;94237.00;;;9.50
10598;BMP180;5346;48.766;8.674;2023-04-19T11:56:20;94274.00;;;9.40
10598;BMP180;5346;48.766;8.674;2023-04-19T11:58:56;94272.00;;;9.60
10598;BMP180;5346;48.766;8.674;2023-04-19T12:01:30;94243.00;;;9.30
10598;BMP180;5346;48.766;8.674;2023-04-19T12:04:04;94278.00;;;9.20
10598;BMP180;5346;48.766;8.674;2023-04-19T12:06:38;94258.00;;;9.30
10598;BMP180;5346;48.766;8.674;2023-04-19T12:09:12;94228.00;;;9.30
10598;BMP180;5346;48.766;8.674;2023-04-19T12:11:49;94233.00;;;9.30
10598;BMP180;5346;48.766;8.674;2023-04-19T12:14:19;94274.00;;;9.20
10598;BMP180;5346;48.766;8.674;2023-04-19T12:19:46;94241.00;;;8.90
10598;BMP180;5346;48.766;8.674;2023-04-19T12:22:19;94231.00;;;8.90
10598;BMP180;5346;48.766;8.674;2023-04-19T12:24:50;94253.00;;;8.90
10598;BMP180;5346;48.766;8.674;2023-04-19T12:27:30;94226.00;;;8.80
10598;BMP180;5346;48.766;8.674;2023-04-19T12:30:11;94237.00;;;8.70
10598;BMP180;5346;48.766;8.674;2023-04-19T12:32:45;94235.00;;;8.50
10598;BMP180;5346;48.766;8.674;2023-04-19T12:35:23;94252.00;;;8.30
10598;BMP180;5346;48.766;8.674;2023-04-19T12:37:58;94235.00;;;8.20
10598;BMP180;5346;48.766;8.674;2023-04-19T12:40:27;94251.00;;;8.20
10598;BMP180;5346;48.766;8.674;2023-04-19T12:42:55;94251.00;;;8.10
10598;BMP180;5346;48.766;8.674;2023-04-19T12:45:28;94252.00;;;8.30
10598;BMP180;5346;48.766;8.674;2023-04-19T12:48:02;94251.00;;;8.30
10598;BMP180;5346;48.766;8.674;2023-04-19T12:50:29;94235.00;;;8.40
10598;BMP180;5346;48.766;8.674;2023-04-19T12:53:03;94232.00;;;8.30
10598;BMP180;5346;48.766;8.674;2023-04-19T12:55:32;94242.00;;;8.30
10598;BMP180;5346;48.766;8.674;2023-04-19T12:58:06;94217.00;;;8.30
10598;BMP180;5346;48.766;8.674;2023-04-19T13:00:33;94219.00;;;8.20
10598;BMP180;5346;48.766;8.674;2023-04-19T13:03:07;94225.00;;;8.30
10598;BMP180;5346;48.766;8.674;2023-04-19T13:05:34;94214.00;;;8.20
10598;BMP180;5346;48.766;8.674;2023-04-19T13:08:08;94223.00;;;8.10
10598;BMP180;5346;48.766;8.674;2023-04-19T13:10:35;94226.00;;;8.00
10598;BMP180;5346;48.766;8.674;2023-04-19T13:13:09;94219.00;;;7.80
10598;BMP180;5346;48.766;8.674;2023-04-19T13:15:43;94229.00;;;7.70
10598;BMP180;5346;48.766;8.674;2023-04-19T13:18:11;94218.00;;;7.70
10598;BMP180;5346;48.766;8.674;2023-04-19T13:20:40;94227.00;;;7.60
10598;BMP180;5346;48.766;8.674;2023-04-19T13:23:14;94206.00;;;7.20
10598;BMP180;5346;48.766;8.674;2023-04-19T13:25:48;94220.00;;;7.10
10598;BMP180;5346;48.766;8.674;2023-04-19T13:28:28;94230.00;;;7.00
10598;BMP180;5346;48.766;8.674;2023-04-19T13:31:47;94221.00;;;7.00
10598;BMP180;5346;48.766;8.674;2023-04-19T13:34:21;94199.00;;;7.00
10598;BMP180;5346;48.766;8.674;2023-04-19T13:36:55;94187.00;;;6.90
10598;BMP180;5346;48.766;8.674;2023-04-19T13:39:23;94219.00;;;6.70
10598;BMP180;5346;48.766;8.674;2023-04-19T13:41:57;94221.00;;;6.60
10598;BMP180;5346;48.766;8.674;2023-04-19T13:44:24;94200.00;;;6.50
10598;BMP180;5346;48.766;8.674;2023-04-19T13:46:58;94209.00;;;6.40
10598;BMP180;5346;48.766;8.674;2023-04-19T13:49:26;94208.00;;;6.40
10598;BMP180;5346;48.766;8.674;2023-04-19T13:51:59;94209.00;;;6.30
10598;BMP180;5346;48.766;8.674;2023-04-19T13:54:32;94196.00;;;6.40
10598;BMP180;5346;48.766;8.674;2023-04-19T13:56:59;94186.00;;;6.30
10598;BMP180;5346;48.766;8.674;2023-04-19T13:59:33;94202.00;;;6.40
10598;BMP180;5346;48.766;8.674;2023-04-19T14:02:02;94186.00;;;6.40
10598;BMP180;5346;48.766;8.674;2023-04-19T14:04:36;94176.00;;;6.40
10598;BMP180;5346;48.766;8.674;2023-04-19T14:07:03;94195.00;;;6.50
10598;BMP180;5346;48.766;8.674;2023-04-19T14:09:30;94186.00;;;6.40
10598;BMP180;5346;48.766;8.674;2023-04-19T14:12:05;94162.00;;;6.50
10598;BMP180;5346;48.766;8.674;2023-04-19T14:14:34;94178.00;;;6.60
10598;BMP180;5346;48.766;8.674;2023-04-19T14:17:01;94170.00;;;6.80
10598;BMP180;5346;48.766;8.674;2023-04-19T14:19:35;94169.00;;;7.00
10598;BMP180;5346;48.766;8.674;2023-04-19T14:22:09;94150.00;;;7.10
10598;BMP180;5346;48.766;8.674;2023-04-19T14:24:43;94138.00;;;7.30
10598;BMP180;5346;48.766;8.674;2023-04-19T14:27:11;94159.00;;;7.30
10598;BMP180;5346;48.766;8.674;2023-04-19T14:30:01;94164.00;;;7.00
10598;BMP180;5346;48.766;8.674;2023-04-19T14:32:41;94171.00;;;7.00
10598;BMP180;5346;48.766;8.674;2023-04-19T14:35:15;94163.00;;;7.00
10598;BMP180;5346;48.766;8.674;2023-04-19T14:37:42;94137.00;;;7.00
10598;BMP180;5346;48.766;8.674;2023-04-19T14:40:16;94144.00;;;7.00
10598;BMP180;5346;48.766;8.674;2023-04-19T14:42:51;94107.00;;;6.70
10598;BMP180;5346;48.766;8.674;2023-04-19T14:45:19;94133.00;;;6.70
10598;BMP180;5346;48.766;8.674;2023-04-19T14:47:46;94138.00;;;6.80
10598;BMP180;5346;48.766;8.674;2023-04-19T14:50:20;94109.00;;;6.90
10598;BMP180;5346;48.766;8.674;2023-04-19T14:52:54;94134.00;;;7.00
10598;BMP180;5346;48.766;8.674;2023-04-19T14:55:28;94125.00;;;7.10
10598;BMP180;5346;48.766;8.674;2023-04-19T14:58:03;94131.00;;;7.40
10598;BMP180;5346;48.766;8.674;2023-04-19T15:00:36;94132.00;;;7.50
10598;BMP180;5346;48.766;8.674;2023-04-19T15:03:03;94116.00;;;7.50
10598;BMP180;5346;48.766;8.674;2023-04-19T15:05:37;94118.00;;;7.60
10598;BMP180;5346;48.766;8.674;2023-04-19T15:08:04;94100.00;;;7.50
10598;BMP180;5346;48.766;8.674;2023-04-19T15:10:55;94116.00;;;7.80
10598;BMP180;5346;48.766;8.674;2023-04-19T15:13:29;94104.00;;;7.90
10598;BMP180;5346;48.766;8.674;2023-04-19T15:15:56;94081.00;;;8.20